sensor_id;sensor_type;location;lat;lon;timestamp;P1;durP1;ratioP1;P2;durP2;ratioP2
52102;SDS011;38101;53.126;6.878;2023-05-17T00:01:51;10.10;;;2.67;;
52102;SDS011;38101;53.126;6.878;2023-05-17T00:04:17;8.40;;;2.50;;
52102;SDS011;38101;53.126;6.878;2023-05-17T00:06:42;10.85;;;2.42;;
52102;SDS011;38101;53.126;6.878;2023-05-17T00:09:08;9.07;;;3.42;;
52102;SDS011;38101;53.126;6.878;2023-05-17T00:11:34;7.40;;;2.60;;
52102;SDS011;38101;53.126;6.878;2023-05-17T00:14:00;8.80;;;2.63;;
52102;SDS011;38101;53.126;6.878;2023-05-17T00:16:26;8.75;;;3.63;;
52102;SDS011;38101;53.126;6.878;2023-05-17T00:18:52;6.22;;;2.45;;
52102;SDS011;38101;53.126;6.878;2023-05-17T00:21:17;9.57;;;3.47;;
52102;SDS011;38101;53.126;6.878;2023-05-17T00:23:43;9.43;;;2.92;;
52102;SDS011;38101;53.126;6.878;2023-05-17T00:26:09;11.65;;;3.25;;
52102;SDS011;38101;53.126;6.878;2023-05-17T00:28:34;8.30;;;2.70;;
52102;SDS011;38101;53.126;6.878;2023-05-17T00:31:00;11.45;;;3.60;;
52102;SDS011;38101;53.126;6.878;2023-05-17T00:33:26;9.00;;;2.70;;
52102;SDS011;38101;53.126;6.878;2023-05-17T00:35:51;6.95;;;2.88;;
52102;SDS011;38101;53.126;6.878;2023-05-17T00:38:17;8.68;;;3.05;;
52102;SDS011;38101;53.126;6.878;2023-05-17T00:40:43;9.23;;;2.67;;
52102;SDS011;38101;53.126;6.878;2023-05-17T00:43:08;10.65;;;2.80;;
52102;SDS011;38101;53.126;6.878;2023-05-17T00:45:34;9.20;;;2.95;;
52102;SDS011;38101;53.126;6.878;2023-05-17T00:48:00;7.57;;;2.67;;
52102;SDS011;38101;53.126;6.878;2023-05-17T00:50:25;7.65;;;2.65;;
52102;SDS011;38101;53.126;6.878;2023-05-17T00:52:51;8.38;;;2.20;;
52102;SDS011;38101;53.126;6.878;2023-05-17T00:55:17;9.43;;;2.80;;
52102;SDS011;38101;53.126;6.878;2023-05-17T00:57:46;10.63;;;2.75;;
52102;SDS011;38101;53.126;6.878;2023-05-17T01:00:12;7.95;;;2.47;;
52102;SDS011;38101;53.126;6.878;2023-05-17T01:02:38;8.75;;;2.80;;
52102;SDS011;38101;53.126;6.878;2023-05-17T01:05:03;13.52;;;3.15;;
52102;SDS011;38101;53.126;6.878;2023-05-17T01:07:30;10.65;;;2.50;;
52102;SDS011;38101;53.126;6.878;2023-05-17T01:09:55;11.40;;;2.95;;
52102;SDS011;38101;53.126;6.878;2023-05-17T01:15:12;9.32;;;2.65;;
52102;SDS011;38101;53.126;6.878;2023-05-17T01:20:20;11.68;;;2.88;;
52102;SDS011;38101;53.126;6.878;2023-05-17T01:22:52;8.45;;;3.13;;
52102;SDS011;38101;53.126;6.878;2023-05-17T01:28:17;11.93;;;3.10;;
52102;SDS011;38101;53.126;6.878;2023-05-17T01:30:45;10.05;;;2.72;;
52102;SDS011;38101;53.126;6.878;2023-05-17T01:33:14;10.77;;;2.97;;
52102;SDS011;38101;53.126;6.878;2023-05-17T01:35:40;8.68;;;2.97;;
52102;SDS011;38101;53.126;6.878;2023-05-17T01:38:06;10.32;;;2.95;;
52102;SDS011;38101;53.126;6.878;2023-05-17T01:40:32;10.98;;;2.67;;
52102;SDS011;38101;53.126;6.878;2023-05-17T01:43:07;7.05;;;2.40;;
52102;SDS011;38101;53.126;6.878;2023-05-17T01:46:15;8.38;;;2.33;;
52102;SDS011;38101;53.126;6.878;2023-05-17T01:48:48;5.72;;;2.40;;
52102;SDS011;38101;53.126;6.878;2023-05-17T01:51:20;11.75;;;2.65;;
52102;SDS011;38101;53.126;6.878;2023-05-17T01:53:54;10.98;;;2.92;;
52102;SDS011;38101;53.126;6.878;2023-05-17T01:58:52;8.18;;;3.03;;
52102;SDS011;38101;53.126;6.878;2023-05-17T02:01:20;11.00;;;2.42;;
52102;SDS011;38101;53.126;6.878;2023-05-17T02:03:48;7.95;;;2.85;;
52102;SDS011;38101;53.126;6.878;2023-05-17T02:06:15;11.93;;;3.03;;
52102;SDS011;38101;53.126;6.878;2023-05-17T02:08:41;8.27;;;3.17;;
52102;SDS011;38101;53.126;6.878;2023-05-17T02:11:07;9.82;;;3.28;;
52102;SDS011;38101;53.126;6.878;2023-05-17T02:13:33;6.88;;;2.92;;
52102;SDS011;38101;53.126;6.878;2023-05-17T02:16:02;9.32;;;2.72;;
52102;SDS011;38101;53.126;6.878;2023-05-17T02:18:28;8.32;;;2.20;;
52102;SDS011;38101;53.126;6.878;2023-05-17T02:20:56;8.30;;;2.70;;
52102;SDS011;38101;53.126;6.878;2023-05-17T02:23:22;7.88;;;2.83;;
52102;SDS011;38101;53.126;6.878;2023-05-17T02:25:49;7.45;;;2.55;;
52102;SDS011;38101;53.126;6.878;2023-05-17T02:28:15;6.78;;;2.40;;
52102;SDS011;38101;53.126;6.878;2023-05-17T02:30:40;11.52;;;2.90;;
52102;SDS011;38101;53.126;6.878;2023-05-17T02:33:06;11.38;;;3.33;;
52102;SDS011;38101;53.126;6.878;2023-05-17T02:35:33;8.20;;;2.53;;
52102;SDS011;38101;53.126;6.878;2023-05-17T02:37:58;4.50;;;2.03;;
52102;SDS011;38101;53.126;6.878;2023-05-17T02:40:24;8.13;;;2.38;;
52102;SDS011;38101;53.126;6.878;2023-05-17T02:42:50;6.55;;;1.90;;
52102;SDS011;38101;53.126;6.878;2023-05-17T02:45:15;6.25;;;2.15;;
52102;SDS011;38101;53.126;6.878;2023-05-17T02:47:41;4.20;;;1.88;;
52102;SDS011;38101;53.126;6.878;2023-05-17T02:50:07;5.00;;;1.63;;
52102;SDS011;38101;53.126;6.878;2023-05-17T02:52:34;6.90;;;2.42;;
52102;SDS011;38101;53.126;6.878;2023-05-17T02:54:59;5.80;;;2.38;;
52102;SDS011;38101;53.126;6.878;2023-05-17T02:57:25;7.15;;;1.77;;
52102;SDS011;38101;53.126;6.878;2023-05-17T02:59:50;6.80;;;2.28;;
52102;SDS011;38101;53.126;6.878;2023-05-17T03:02:16;7.97;;;2.15;;
52102;SDS011;38101;53.126;6.878;2023-05-17T03:04:42;10.25;;;2.00;;
52102;SDS011;38101;53.126;6.878;2023-05-17T03:07:08;8.82;;;2.25;;
52102;SDS011;38101;53.126;6.878;2023-05-17T03:09:33;7.00;;;1.80;;
52102;SDS011;38101;53.126;6.878;2023-05-17T03:11:59;6.57;;;2.05;;
52102;SDS011;38101;53.126;6.878;2023-05-17T03:14:25;5.57;;;2.20;;
52102;SDS011;38101;53.126;6.878;2023-05-17T03:16:51;7.38;;;2.40;;
52102;SDS011;38101;53.126;6.878;2023-05-17T03:19:16;6.57;;;1.80;;
52102;SDS011;38101;53.126;6.878;2023-05-17T03:21:42;5.80;;;2.00;;
52102;SDS011;38101;53.126;6.878;2023-05-17T03:24:08;6.47;;;1.73;;
52102;SDS011;38101;53.126;6.878;2023-05-17T03:26:33;7.63;;;2.05;;
52102;SDS011;38101;53.126;6.878;2023-05-17T03:28:59;6.97;;;1.77;;
52102;SDS011;38101;53.126;6.878;2023-05-17T03:31:25;4.72;;;1.77;;
52102;SDS011;38101;53.126;6.878;2023-05-17T03:33:51;8.63;;;2.85;;
52102;SDS011;38101;53.126;6.878;2023-05-17T03:36:16;3.92;;;1.80;;
52102;SDS011;38101;53.126;6.878;2023-05-17T03:38:42;4.43;;;1.60;;
52102;SDS011;38101;53.126;6.878;2023-05-17T03:41:08;5.95;;;1.85;;
52102;SDS011;38101;53.126;6.878;2023-05-17T03:43:34;7.38;;;1.90;;
52102;SDS011;38101;53.126;6.878;2023-05-17T03:46:00;7.30;;;1.70;;
52102;SDS011;38101;53.126;6.878;2023-05-17T03:48:25;3.97;;;1.70;;
52102;SDS011;38101;53.126;6.878;2023-05-17T03:50:51;4.05;;;1.77;;
52102;SDS011;38101;53.126;6.878;2023-05-17T03:53:17;7.45;;;1.90;;
52102;SDS011;38101;53.126;6.878;2023-05-17T03:55:42;5.82;;;1.98;;
52102;SDS011;38101;53.126;6.878;2023-05-17T03:58:08;5.97;;;1.50;;
52102;SDS011;38101;53.126;6.878;2023-05-17T04:00:34;4.30;;;2.10;;
52102;SDS011;38101;53.126;6.878;2023-05-17T04:03:00;7.15;;;2.30;;
52102;SDS011;38101;53.126;6.878;2023-05-17T04:05:26;11.45;;;2.58;;
52102;SDS011;38101;53.126;6.878;2023-05-17T04:07:52;5.72;;;1.70;;
52102;SDS011;38101;53.126;6.878;2023-05-17T04:10:18;3.47;;;1.80;;
52102;SDS011;38101;53.126;6.878;2023-05-17T04:12:44;8.50;;;1.88;;
52102;SDS011;38101;53.126;6.878;2023-05-17T04:15:09;4.28;;;1.58;;
52102;SDS011;38101;53.126;6.878;2023-05-17T04:17:35;5.85;;;2.25;;
52102;SDS011;38101;53.126;6.878;2023-05-17T04:20:01;3.90;;;1.70;;
52102;SDS011;38101;53.126;6.878;2023-05-17T04:22:30;6.72;;;2.17;;
52102;SDS011;38101;53.126;6.878;2023-05-17T04:24:56;5.28;;;1.90;;
52102;SDS011;38101;53.126;6.878;2023-05-17T04:27:22;5.25;;;2.03;;
52102;SDS011;38101;53.126;6.878;2023-05-17T04:29:48;5.20;;;2.00;;
52102;SDS011;38101;53.126;6.878;2023-05-17T04:32:13;4.43;;;1.60;;
52102;SDS011;38101;53.126;6.878;2023-05-17T04:34:39;9.65;;;2.10;;
52102;SDS011;38101;53.126;6.878;2023-05-17T04:37:05;5.35;;;1.90;;
52102;SDS011;38101;53.126;6.878;2023-05-17T04:39:31;4.63;;;1.80;;
52102;SDS011;38101;53.126;6.878;2023-05-17T04:41:57;5.28;;;1.65;;
52102;SDS011;38101;53.126;6.878;2023-05-17T04:44:22;5.18;;;1.83;;
52102;SDS011;38101;53.126;6.878;2023-05-17T04:46:48;6.70;;;1.77;;
52102;SDS011;38101;53.126;6.878;2023-05-17T04:49:14;6.20;;;1.65;;
52102;SDS011;38101;53.126;6.878;2023-05-17T04:51:40;8.52;;;1.92;;
52102;SDS011;38101;53.126;6.878;2023-05-17T04:54:05;4.93;;;1.80;;
52102;SDS011;38101;53.126;6.878;2023-05-17T04:56:33;3.33;;;1.55;;
52102;SDS011;38101;53.126;6.878;2023-05-17T04:58:59;5.35;;;1.80;;
52102;SDS011;38101;53.126;6.878;2023-05-17T05:01:26;5.13;;;1.45;;
52102;SDS011;38101;53.126;6.878;2023-05-17T05:03:55;5.43;;;1.92;;
52102;SDS011;38101;53.126;6.878;2023-05-17T05:06:21;5.97;;;1.95;;
52102;SDS011;38101;53.126;6.878;2023-05-17T05:08:47;5.07;;;1.55;;
52102;SDS011;38101;53.126;6.878;2023-05-17T05:11:12;3.72;;;1.80;;
52102;SDS011;38101;53.126;6.878;2023-05-17T05:13:38;7.95;;;2.00;;
52102;SDS011;38101;53.126;6.878;2023-05-17T05:16:05;4.60;;;2.05;;
52102;SDS011;38101;53.126;6.878;2023-05-17T05:18:31;3.90;;;1.50;;
52102;SDS011;38101;53.126;6.878;2023-05-17T05:20:57;6.32;;;1.92;;
52102;SDS011;38101;53.126;6.878;2023-05-17T05:23:23;6.20;;;1.67;;
52102;SDS011;38101;53.126;6.878;2023-05-17T05:25:49;7.35;;;1.60;;
52102;SDS011;38101;53.126;6.878;2023-05-17T05:28:14;4.60;;;1.75;;
52102;SDS011;38101;53.126;6.878;2023-05-17T05:30:40;3.25;;;1.30;;
52102;SDS011;38101;53.126;6.878;2023-05-17T05:33:06;7.57;;;2.00;;
52102;SDS011;38101;53.126;6.878;2023-05-17T05:35:31;6.13;;;1.88;;
52102;SDS011;38101;53.126;6.878;2023-05-17T05:37:57;4.05;;;1.52;;
52102;SDS011;38101;53.126;6.878;2023-05-17T05:40:23;6.15;;;2.28;;
52102;SDS011;38101;53.126;6.878;2023-05-17T05:42:49;5.10;;;1.88;;
52102;SDS011;38101;53.126;6.878;2023-05-17T05:45:16;4.32;;;1.90;;
52102;SDS011;38101;53.126;6.878;2023-05-17T05:47:42;5.88;;;1.58;;
52102;SDS011;38101;53.126;6.878;2023-05-17T05:50:08;5.40;;;2.20;;
52102;SDS011;38101;53.126;6.878;2023-05-17T05:52:35;6.97;;;2.25;;
52102;SDS011;38101;53.126;6.878;2023-05-17T05:55:01;9.35;;;2.10;;
52102;SDS011;38101;53.126;6.878;2023-05-17T05:57:26;7.60;;;1.73;;
52102;SDS011;38101;53.126;6.878;2023-05-17T05:59:52;5.57;;;1.85;;
52102;SDS011;38101;53.126;6.878;2023-05-17T06:02:18;4.88;;;1.70;;
52102;SDS011;38101;53.126;6.878;2023-05-17T06:04:47;7.95;;;1.92;;
52102;SDS011;38101;53.126;6.878;2023-05-17T06:07:13;6.40;;;1.77;;
52102;SDS011;38101;53.126;6.878;2023-05-17T06:09:39;6.75;;;1.65;;
52102;SDS011;38101;53.126;6.878;2023-05-17T06:12:05;4.15;;;2.03;;
52102;SDS011;38101;53.126;6.878;2023-05-17T06:14:31;5.85;;;1.77;;
52102;SDS011;38101;53.126;6.878;2023-05-17T06:16:56;6.75;;;1.80;;
52102;SDS011;38101;53.126;6.878;2023-05-17T06:19:22;6.63;;;2.20;;
52102;SDS011;38101;53.126;6.878;2023-05-17T06:21:48;8.02;;;2.35;;
52102;SDS011;38101;53.126;6.878;2023-05-17T06:24:14;5.80;;;1.73;;
52102;SDS011;38101;53.126;6.878;2023-05-17T06:26:41;9.88;;;2.03;;
52102;SDS011;38101;53.126;6.878;2023-05-17T06:29:08;5.47;;;2.15;;
52102;SDS011;38101;53.126;6.878;2023-05-17T06:31:34;4.57;;;1.65;;
52102;SDS011;38101;53.126;6.878;2023-05-17T06:34:00;10.32;;;2.65;;
52102;SDS011;38101;53.126;6.878;2023-05-17T06:36:25;6.38;;;1.98;;
52102;SDS011;38101;53.126;6.878;2023-05-17T06:38:51;7.10;;;2.08;;
52102;SDS011;38101;53.126;6.878;2023-05-17T06:41:17;8.27;;;2.33;;
52102;SDS011;38101;53.126;6.878;2023-05-17T06:43:43;7.30;;;2.20;;
52102;SDS011;38101;53.126;6.878;2023-05-17T06:46:09;7.68;;;1.85;;
52102;SDS011;38101;53.126;6.878;2023-05-17T06:48:35;4.95;;;1.88;;
52102;SDS011;38101;53.126;6.878;2023-05-17T06:51:01;5.65;;;2.40;;
52102;SDS011;38101;53.126;6.878;2023-05-17T06:53:30;5.53;;;1.88;;
52102;SDS011;38101;53.126;6.878;2023-05-17T06:55:55;6.38;;;1.90;;
52102;SDS011;38101;53.126;6.878;2023-05-17T06:58:21;7.72;;;2.08;;
52102;SDS011;38101;53.126;6.878;2023-05-17T07:00:47;6.95;;;2.30;;
52102;SDS011;38101;53.126;6.878;2023-05-17T07:03:12;5.93;;;2.17;;
52102;SDS011;38101;53.126;6.878;2023-05-17T07:05:38;7.90;;;2.25;;
52102;SDS011;38101;53.126;6.878;2023-05-17T07:08:04;7.63;;;2.25;;
52102;SDS011;38101;53.126;6.878;2023-05-17T07:10:30;5.72;;;2.03;;
52102;SDS011;38101;53.126;6.878;2023-05-17T07:12:56;6.28;;;1.80;;
52102;SDS011;38101;53.126;6.878;2023-05-17T07:15:21;7.32;;;2.15;;
52102;SDS011;38101;53.126;6.878;2023-05-17T07:17:47;6.68;;;2.13;;
52102;SDS011;38101;53.126;6.878;2023-05-17T07:20:13;4.95;;;1.90;;
52102;SDS011;38101;53.126;6.878;2023-05-17T07:22:39;3.00;;;1.60;;
52102;SDS011;38101;53.126;6.878;2023-05-17T07:25:05;6.15;;;2.00;;
52102;SDS011;38101;53.126;6.878;2023-05-17T07:27:31;7.82;;;2.33;;
52102;SDS011;38101;53.126;6.878;2023-05-17T07:29:57;6.18;;;1.77;;
52102;SDS011;38101;53.126;6.878;2023-05-17T07:32:23;6.35;;;1.80;;
52102;SDS011;38101;53.126;6.878;2023-05-17T07:34:48;4.55;;;2.08;;
52102;SDS011;38101;53.126;6.878;2023-05-17T07:37:14;5.03;;;1.95;;
52102;SDS011;38101;53.126;6.878;2023-05-17T07:39:40;5.82;;;1.73;;
52102;SDS011;38101;53.126;6.878;2023-05-17T07:42:06;7.82;;;1.88;;
52102;SDS011;38101;53.126;6.878;2023-05-17T07:44:32;5.25;;;2.00;;
52102;SDS011;38101;53.126;6.878;2023-05-17T07:46:58;5.28;;;1.85;;
52102;SDS011;38101;53.126;6.878;2023-05-17T07:49:25;5.95;;;1.63;;
52102;SDS011;38101;53.126;6.878;2023-05-17T07:51:51;4.75;;;1.52;;
52102;SDS011;38101;53.126;6.878;2023-05-17T07:54:21;5.15;;;2.08;;
52102;SDS011;38101;53.126;6.878;2023-05-17T07:56:48;12.90;;;2.90;;
52102;SDS011;38101;53.126;6.878;2023-05-17T07:59:14;4.38;;;1.50;;
52102;SDS011;38101;53.126;6.878;2023-05-17T08:01:40;7.47;;;2.25;;
52102;SDS011;38101;53.126;6.878;2023-05-17T08:04:06;7.13;;;2.10;;
52102;SDS011;38101;53.126;6.878;2023-05-17T08:06:31;7.20;;;1.83;;
52102;SDS011;38101;53.126;6.878;2023-05-17T08:08:57;8.07;;;2.88;;
52102;SDS011;38101;53.126;6.878;2023-05-17T08:11:23;6.43;;;2.05;;
52102;SDS011;38101;53.126;6.878;2023-05-17T08:13:49;8.43;;;1.95;;
52102;SDS011;38101;53.126;6.878;2023-05-17T08:16:15;7.93;;;2.00;;
52102;SDS011;38101;53.126;6.878;2023-05-17T08:18:41;7.95;;;1.70;;
52102;SDS011;38101;53.126;6.878;2023-05-17T08:21:07;14.45;;;2.70;;
52102;SDS011;38101;53.126;6.878;2023-05-17T08:23:33;6.63;;;2.20;;
52102;SDS011;38101;53.126;6.878;2023-05-17T08:25:58;8.05;;;2.25;;
52102;SDS011;38101;53.126;6.878;2023-05-17T08:28:24;4.30;;;1.80;;
52102;SDS011;38101;53.126;6.878;2023-05-17T08:30:50;8.52;;;2.20;;
52102;SDS011;38101;53.126;6.878;2023-05-17T08:33:16;7.55;;;2.00;;
52102;SDS011;38101;53.126;6.878;2023-05-17T08:35:42;7.25;;;2.33;;
52102;SDS011;38101;53.126;6.878;2023-05-17T08:38:07;8.32;;;2.33;;
52102;SDS011;38101;53.126;6.878;2023-05-17T08:40:33;6.05;;;2.15;;
52102;SDS011;38101;53.126;6.878;2023-05-17T08:42:59;7.25;;;2.08;;
52102;SDS011;38101;53.126;6.878;2023-05-17T08:45:27;5.97;;;1.50;;
52102;SDS011;38101;53.126;6.878;2023-05-17T08:47:55;6.80;;;2.10;;
52102;SDS011;38101;53.126;6.878;2023-05-17T08:50:21;5.53;;;1.85;;
52102;SDS011;38101;53.126;6.878;2023-05-17T08:52:47;5.35;;;1.83;;
52102;SDS011;38101;53.126;6.878;2023-05-17T08:55:13;5.68;;;2.15;;
52102;SDS011;38101;53.126;6.878;2023-05-17T08:57:40;5.10;;;1.60;;
52102;SDS011;38101;53.126;6.878;2023-05-17T09:00:06;5.35;;;2.03;;
52102;SDS011;38101;53.126;6.878;2023-05-17T09:02:37;4.07;;;1.40;;
52102;SDS011;38101;53.126;6.878;2023-05-17T09:05:07;8.38;;;1.67;;
52102;SDS011;38101;53.126;6.878;2023-05-17T09:07:34;4.57;;;1.90;;
52102;SDS011;38101;53.126;6.878;2023-05-17T09:10:01;6.30;;;2.00;;
52102;SDS011;38101;53.126;6.878;2023-05-17T09:12:31;9.20;;;1.73;;
52102;SDS011;38101;53.126;6.878;2023-05-17T09:15:13;4.53;;;1.50;;
52102;SDS011;38101;53.126;6.878;2023-05-17T09:17:40;5.47;;;1.27;;
52102;SDS011;38101;53.126;6.878;2023-05-17T09:20:07;4.88;;;1.38;;
52102;SDS011;38101;53.126;6.878;2023-05-17T09:22:34;5.25;;;1.92;;
52102;SDS011;38101;53.126;6.878;2023-05-17T09:25:01;4.55;;;1.52;;
52102;SDS011;38101;53.126;6.878;2023-05-17T09:27:29;7.88;;;1.80;;
52102;SDS011;38101;53.126;6.878;2023-05-17T09:29:58;3.05;;;1.30;;
52102;SDS011;38101;53.126;6.878;2023-05-17T09:32:24;3.90;;;1.60;;
52102;SDS011;38101;53.126;6.878;2023-05-17T09:34:52;5.68;;;1.75;;
52102;SDS011;38101;53.126;6.878;2023-05-17T09:37:20;4.32;;;1.50;;
52102;SDS011;38101;53.126;6.878;2023-05-17T09:39:47;8.85;;;2.05;;
52102;SDS011;38101;53.126;6.878;2023-05-17T09:42:14;13.90;;;3.10;;
52102;SDS011;38101;53.126;6.878;2023-05-17T09:44:50;5.57;;;1.90;;
52102;SDS011;38101;53.126;6.878;2023-05-17T09:47:28;10.00;;;1.90;;
52102;SDS011;38101;53.126;6.878;2023-05-17T09:49:58;4.90;;;1.60;;
52102;SDS011;38101;53.126;6.878;2023-05-17T09:52:26;6.95;;;2.20;;
52102;SDS011;38101;53.126;6.878;2023-05-17T09:54:56;7.40;;;1.98;;
52102;SDS011;38101;53.126;6.878;2023-05-17T09:57:25;6.70;;;1.90;;
52102;SDS011;38101;53.126;6.878;2023-05-17T09:59:54;5.35;;;1.95;;
52102;SDS011;38101;53.126;6.878;2023-05-17T10:02:27;5.55;;;1.52;;
52102;SDS011;38101;53.126;6.878;2023-05-17T10:04:56;3.63;;;1.70;;
52102;SDS011;38101;53.126;6.878;2023-05-17T10:07:23;6.30;;;1.80;;
52102;SDS011;38101;53.126;6.878;2023-05-17T10:09:51;8.15;;;2.10;;
52102;SDS011;38101;53.126;6.878;2023-05-17T10:12:22;4.30;;;1.55;;
52102;SDS011;38101;53.126;6.878;2023-05-17T10:14:49;7.38;;;1.95;;
52102;SDS011;38101;53.126;6.878;2023-05-17T10:17:16;4.43;;;1.88;;
52102;SDS011;38101;53.126;6.878;2023-05-17T10:19:43;4.57;;;1.60;;
52102;SDS011;38101;53.126;6.878;2023-05-17T10:22:10;3.95;;;1.60;;
52102;SDS011;38101;53.126;6.878;2023-05-17T10:24:37;4.25;;;1.67;;
52102;SDS011;38101;53.126;6.878;2023-05-17T10:27:04;7.38;;;1.88;;
52102;SDS011;38101;53.126;6.878;2023-05-17T10:29:32;4.97;;;1.73;;
52102;SDS011;38101;53.126;6.878;2023-05-17T10:32:02;6.57;;;2.10;;
52102;SDS011;38101;53.126;6.878;2023-05-17T10:34:32;4.60;;;1.40;;
52102;SDS011;38101;53.126;6.878;2023-05-17T10:37:00;5.43;;;1.70;;
52102;SDS011;38101;53.126;6.878;2023-05-17T10:39:26;5.13;;;1.40;;
52102;SDS011;38101;53.126;6.878;2023-05-17T10:41:52;9.48;;;2.25;;
52102;SDS011;38101;53.126;6.878;2023-05-17T10:44:20;5.70;;;1.67;;
52102;SDS011;38101;53.126;6.878;2023-05-17T10:46:50;3.35;;;1.45;;
52102;SDS011;38101;53.126;6.878;2023-05-17T10:49:22;4.38;;;1.60;;
52102;SDS011;38101;53.126;6.878;2023-05-17T10:51:50;5.18;;;1.60;;
52102;SDS011;38101;53.126;6.878;2023-05-17T10:54:16;4.10;;;1.67;;
52102;SDS011;38101;53.126;6.878;2023-05-17T10:56:49;7.93;;;1.85;;
52102;SDS011;38101;53.126;6.878;2023-05-17T11:09:42;4.28;;;1.50;;
52102;SDS011;38101;53.126;6.878;2023-05-17T11:12:14;3.25;;;1.50;;
52102;SDS011;38101;53.126;6.878;2023-05-17T11:15:26;3.60;;;1.70;;
52102;SDS011;38101;53.126;6.878;2023-05-17T11:17:34;3.95;;;1.40;;
52102;SDS011;38101;53.126;6.878;2023-05-17T11:20:05;5.78;;;2.05;;
52102;SDS011;38101;53.126;6.878;2023-05-17T11:22:35;7.05;;;1.65;;
52102;SDS011;38101;53.126;6.878;2023-05-17T11:25:21;5.93;;;2.05;;
52102;SDS011;38101;53.126;6.878;2023-05-17T11:27:48;3.57;;;1.40;;
52102;SDS011;38101;53.126;6.878;2023-05-17T11:32:50;6.25;;;2.13;;
52102;SDS011;38101;53.126;6.878;2023-05-17T11:35:18;6.85;;;1.98;;
52102;SDS011;38101;53.126;6.878;2023-05-17T11:37:50;3.13;;;1.80;;
52102;SDS011;38101;53.126;6.878;2023-05-17T11:40:24;6.07;;;2.10;;
52102;SDS011;38101;53.126;6.878;2023-05-17T11:43:13;6.60;;;2.00;;
52102;SDS011;38101;53.126;6.878;2023-05-17T11:45:47;4.15;;;1.70;;
52102;SDS011;38101;53.126;6.878;2023-05-17T11:48:14;4.53;;;1.70;;
52102;SDS011;38101;53.126;6.878;2023-05-17T11:50:43;8.65;;;2.33;;
52102;SDS011;38101;53.126;6.878;2023-05-17T11:53:10;6.65;;;1.50;;
52102;SDS011;38101;53.126;6.878;2023-05-17T11:55:37;5.30;;;1.92;;
52102;SDS011;38101;53.126;6.878;2023-05-17T11:58:08;7.97;;;2.28;;
52102;SDS011;38101;53.126;6.878;2023-05-17T12:00:35;5.43;;;1.92;;
52102;SDS011;38101;53.126;6.878;2023-05-17T12:05:49;4.80;;;1.75;;
52102;SDS011;38101;53.126;6.878;2023-05-17T12:08:25;4.63;;;1.80;;
52102;SDS011;38101;53.126;6.878;2023-05-17T12:10:51;5.88;;;1.63;;
52102;SDS011;38101;53.126;6.878;2023-05-17T12:13:17;7.35;;;2.42;;
52102;SDS011;38101;53.126;6.878;2023-05-17T12:15:47;7.03;;;1.80;;
52102;SDS011;38101;53.126;6.878;2023-05-17T12:18:19;6.97;;;2.00;;
52102;SDS011;38101;53.126;6.878;2023-05-17T12:20:54;7.05;;;1.88;;
52102;SDS011;38101;53.126;6.878;2023-05-17T12:23:40;5.40;;;1.80;;
52102;SDS011;38101;53.126;6.878;2023-05-17T12:28:52;4.43;;;1.70;;
52102;SDS011;38101;53.126;6.878;2023-05-17T12:33:53;5.88;;;2.25;;
52102;SDS011;38101;53.126;6.878;2023-05-17T12:36:20;4.18;;;1.85;;
52102;SDS011;38101;53.126;6.878;2023-05-17T12:38:47;4.43;;;1.85;;
52102;SDS011;38101;53.126;6.878;2023-05-17T12:41:14;5.38;;;2.10;;
52102;SDS011;38101;53.126;6.878;2023-05-17T12:43:42;5.35;;;1.85;;
52102;SDS011;38101;53.126;6.878;2023-05-17T12:46:11;9.77;;;2.33;;
52102;SDS011;38101;53.126;6.878;2023-05-17T12:48:44;5.22;;;2.00;;
52102;SDS011;38101;53.126;6.878;2023-05-17T12:51:12;5.30;;;2.05;;
52102;SDS011;38101;53.126;6.878;2023-05-17T12:53:39;4.68;;;2.08;;
52102;SDS011;38101;53.126;6.878;2023-05-17T12:56:07;4.28;;;1.83;;
52102;SDS011;38101;53.126;6.878;2023-05-17T12:58:38;5.88;;;2.42;;
52102;SDS011;38101;53.126;6.878;2023-05-17T13:01:04;3.88;;;1.83;;
52102;SDS011;38101;53.126;6.878;2023-05-17T13:03:37;3.95;;;2.30;;
52102;SDS011;38101;53.126;6.878;2023-05-17T13:06:04;4.50;;;1.77;;
52102;SDS011;38101;53.126;6.878;2023-05-17T13:08:32;4.82;;;1.98;;
52102;SDS011;38101;53.126;6.878;2023-05-17T13:11:11;6.00;;;2.20;;
52102;SDS011;38101;53.126;6.878;2023-05-17T13:13:38;4.43;;;1.80;;
52102;SDS011;38101;53.126;6.878;2023-05-17T13:16:05;4.43;;;1.55;;
52102;SDS011;38101;53.126;6.878;2023-05-17T13:18:45;4.25;;;1.60;;
52102;SDS011;38101;53.126;6.878;2023-05-17T13:21:16;6.03;;;1.90;;
52102;SDS011;38101;53.126;6.878;2023-05-17T13:23:42;5.40;;;1.90;;
52102;SDS011;38101;53.126;6.878;2023-05-17T13:26:11;8.10;;;2.10;;
52102;SDS011;38101;53.126;6.878;2023-05-17T13:28:37;5.00;;;1.90;;
52102;SDS011;38101;53.126;6.878;2023-05-17T13:31:04;6.38;;;2.10;;
52102;SDS011;38101;53.126;6.878;2023-05-17T13:33:30;3.55;;;1.40;;
52102;SDS011;38101;53.126;6.878;2023-05-17T13:35:56;5.40;;;2.25;;
52102;SDS011;38101;53.126;6.878;2023-05-17T13:38:21;5.93;;;1.80;;
52102;SDS011;38101;53.126;6.878;2023-05-17T13:40:47;4.65;;;1.92;;
52102;SDS011;38101;53.126;6.878;2023-05-17T13:43:13;4.00;;;1.92;;
52102;SDS011;38101;53.126;6.878;2023-05-17T13:45:39;4.50;;;1.80;;
52102;SDS011;38101;53.126;6.878;2023-05-17T13:48:05;6.13;;;2.30;;
52102;SDS011;38101;53.126;6.878;2023-05-17T13:50:31;6.20;;;2.05;;
52102;SDS011;38101;53.126;6.878;2023-05-17T13:52:56;6.32;;;2.17;;
52102;SDS011;38101;53.126;6.878;2023-05-17T13:55:23;6.18;;;1.90;;
52102;SDS011;38101;53.126;6.878;2023-05-17T13:57:49;5.30;;;1.80;;
52102;SDS011;38101;53.126;6.878;2023-05-17T14:00:15;4.32;;;1.92;;
52102;SDS011;38101;53.126;6.878;2023-05-17T14:02:40;8.88;;;2.30;;
52102;SDS011;38101;53.126;6.878;2023-05-17T14:05:06;6.38;;;1.95;;
52102;SDS011;38101;53.126;6.878;2023-05-17T14:07:34;5.10;;;2.00;;
52102;SDS011;38101;53.126;6.878;2023-05-17T14:10:05;3.33;;;1.50;;
52102;SDS011;38101;53.126;6.878;2023-05-17T14:12:33;5.20;;;1.70;;
52102;SDS011;38101;53.126;6.878;2023-05-17T14:14:58;4.82;;;1.80;;
52102;SDS011;38101;53.126;6.878;2023-05-17T14:17:24;4.05;;;1.83;;
52102;SDS011;38101;53.126;6.878;2023-05-17T14:19:50;3.58;;;1.58;;
52102;SDS011;38101;53.126;6.878;2023-05-17T14:22:15;2.88;;;1.38;;
52102;SDS011;38101;53.126;6.878;2023-05-17T14:24:41;4.10;;;1.38;;
52102;SDS011;38101;53.126;6.878;2023-05-17T14:27:07;4.70;;;1.60;;
52102;SDS011;38101;53.126;6.878;2023-05-17T14:29:32;4.88;;;1.65;;
52102;SDS011;38101;53.126;6.878;2023-05-17T14:31:58;3.58;;;1.58;;
52102;SDS011;38101;53.126;6.878;2023-05-17T14:34:23;5.00;;;1.60;;
52102;SDS011;38101;53.126;6.878;2023-05-17T14:36:49;3.92;;;1.50;;
52102;SDS011;38101;53.126;6.878;2023-05-17T14:39:15;3.35;;;1.50;;
52102;SDS011;38101;53.126;6.878;2023-05-17T14:41:41;2.83;;;1.60;;
52102;SDS011;38101;53.126;6.878;2023-05-17T14:44:07;3.88;;;1.80;;
52102;SDS011;38101;53.126;6.878;2023-05-17T14:46:33;3.90;;;1.77;;
52102;SDS011;38101;53.126;6.878;2023-05-17T14:48:58;4.80;;;1.77;;
52102;SDS011;38101;53.126;6.878;2023-05-17T14:51:24;2.72;;;1.38;;
52102;SDS011;38101;53.126;6.878;2023-05-17T14:53:50;4.10;;;1.58;;
52102;SDS011;38101;53.126;6.878;2023-05-17T14:56:18;3.15;;;1.35;;
52102;SDS011;38101;53.126;6.878;2023-05-17T14:58:43;5.85;;;1.70;;
52102;SDS011;38101;53.126;6.878;2023-05-17T15:01:09;6.13;;;1.48;;
52102;SDS011;38101;53.126;6.878;2023-05-17T15:03:35;4.32;;;2.20;;
52102;SDS011;38101;53.126;6.878;2023-05-17T15:06:01;4.22;;;1.75;;
52102;SDS011;38101;53.126;6.878;2023-05-17T15:08:27;4.22;;;1.60;;
52102;SDS011;38101;53.126;6.878;2023-05-17T15:10:53;3.50;;;1.52;;
52102;SDS011;38101;53.126;6.878;2023-05-17T15:13:19;3.80;;;1.50;;
52102;SDS011;38101;53.126;6.878;2023-05-17T15:15:45;3.67;;;1.80;;
52102;SDS011;38101;53.126;6.878;2023-05-17T15:18:11;6.18;;;1.95;;